createdAt,value
2023-03-19T08:21:29.427Z,96318.31
2023-03-19T08:23:56.310Z,96318.47
2023-03-19T08:26:24.110Z,96320.41
2023-03-19T08:28:51.084Z,96319.22
2023-03-19T08:31:17.938Z,96316.69
2023-03-19T08:33:45.511Z,96323.69
2023-03-19T08:36:12.480Z,96315.78
2023-03-19T08:38:50.639Z,96318.28
2023-03-19T08:41:17.477Z,96320.53
2023-03-19T08:43:44.812Z,96321.53
2023-03-19T08:46:12.856Z,96322.25
2023-03-19T08:48:41.544Z,96332.63
2023-03-19T08:51:08.441Z,96334.81
2023-03-19T08:53:36.940Z,96334.91
2023-03-19T08:56:05.053Z,96333.19
2023-03-19T08:58:31.515Z,96337.28
2023-03-19T09:01:00.052Z,96338.59
2023-03-19T09:03:27.079Z,96341.72
2023-03-19T09:05:54.825Z,96337.50
2023-03-19T09:08:21.667Z,96349.84
2023-03-19T09:10:50.354Z,96345.00
2023-03-19T09:13:18.602Z,96344.56
2023-03-19T09:15:45.460Z,96340.22
2023-03-19T09:18:12.337Z,96340.44
2023-03-19T09:20:39.264Z,96337.25
2023-03-19T09:23:06.251Z,96333.97
2023-03-19T09:25:40.269Z,96331.25
2023-03-19T09:28:09.652Z,96327.44
2023-03-19T09:30:38.213Z,96332.19
2023-03-19T09:33:06.665Z,96331.97
2023-03-19T09:35:34.709Z,96330.38
2023-03-19T09:38:01.915Z,96337.66
2023-03-19T09:40:28.783Z,96330.44
2023-03-19T09:42:56.587Z,96329.72
2023-03-19T09:45:24.079Z,96332.31
2023-03-19T09:47:50.791Z,96328.59
2023-03-19T09:50:17.754Z,96333.97
2023-03-19T09:52:51.887Z,96331.44
2023-03-19T09:55:18.635Z,96336.84
2023-03-19T09:57:45.250Z,96335.44
2023-03-19T10:00:15.325Z,96335.97
2023-03-19T10:02:44.377Z,96331.91
2023-03-19T10:05:11.206Z,96331.63
2023-03-19T10:07:40.292Z,96330.06
2023-03-19T10:10:07.158Z,96324.16
2023-03-19T10:12:33.764Z,96327.66
2023-03-19T10:15:03.717Z,96330.41
2023-03-19T10:17:30.310Z,96328.16
2023-03-19T10:19:57.182Z,96338.25
2023-03-19T10:22:31.112Z,96333.97
2023-03-19T10:24:58.925Z,96341.94
2023-03-19T10:27:27.730Z,96340.94
2023-03-19T10:29:54.507Z,96339.25
2023-03-19T10:32:23.820Z,96335.50
2023-03-19T10:34:50.647Z,96343.25
2023-03-19T10:37:17.679Z,96350.16
2023-03-19T10:39:52.644Z,96350.53
2023-03-19T10:42:20.334Z,96347.97
2023-03-19T10:44:48.690Z,96350.84
2023-03-19T10:47:15.521Z,96350.81
2023-03-19T10:49:42.411Z,96344.50
2023-03-19T10:52:12.301Z,96353.00
2023-03-19T10:54:40.887Z,96341.50
2023-03-19T10:57:33.583Z,96340.69
2023-03-19T11:00:01.924Z,96351.69
2023-03-19T11:02:29.563Z,96347.53
2023-03-19T11:04:56.235Z,96338.03
2023-03-19T11:10:32.953Z,96349.25
2023-03-19T11:13:00.416Z,96349.13
2023-03-19T11:15:27.583Z,96352.38
2023-03-19T11:21:03.925Z,96351.09
2023-03-19T11:23:33.082Z,96351.22
2023-03-19T11:25:59.837Z,96349.47
2023-03-19T11:31:42.324Z,96347.56
2023-03-19T11:34:09.139Z,96356.91
2023-03-19T11:36:36.191Z,96347.28
2023-03-19T11:42:06.564Z,96351.84
2023-03-19T11:44:33.376Z,96352.56
2023-03-19T11:47:00.793Z,96349.84
2023-03-19T11:49:27.485Z,96348.56
2023-03-19T11:51:55.765Z,96359.94
2023-03-19T11:54:27.009Z,96354.88
2023-03-19T11:56:54.986Z,96354.03
2023-03-19T11:59:21.537Z,96347.59
2023-03-19T12:01:48.104Z,96348.53
2023-03-19T12:04:15.229Z,96339.88
2023-03-19T12:06:44.192Z,96342.66
2023-03-19T12:09:13.183Z,96350.72
2023-03-19T12:11:47.543Z,96339.94
2023-03-19T12:14:15.403Z,96349.84
2023-03-19T12:16:46.420Z,96336.88
2023-03-19T12:19:15.007Z,96338.69
2023-03-19T12:21:42.417Z,96336.97
2023-03-19T12:24:09.130Z,96335.34
2023-03-19T12:26:36.668Z,96330.00
2023-03-19T12:29:04.617Z,96333.78
2023-03-19T12:31:31.430Z,96327.84
2023-03-19T12:33:58.348Z,96328.09
2023-03-19T12:36:24.848Z,96327.41
2023-03-19T12:38:53.418Z,96323.78
2023-03-19T12:41:27.420Z,96323.09
2023-03-19T12:43:54.281Z,96325.56
2023-03-19T12:46:21.720Z,96314.88
2023-03-19T12:48:55.913Z,96311.72
2023-03-19T12:51:22.768Z,96309.19
2023-03-19T12:53:49.631Z,96307.81
2023-03-19T12:56:23.364Z,96309.44
2023-03-19T12:58:50.667Z,96308.97
2023-03-19T13:01:18.081Z,96306.16
2023-03-19T13:03:44.629Z,96295.81
2023-03-19T13:06:12.535Z,96298.88
2023-03-19T13:08:41.520Z,96300.38
2023-03-19T13:11:08.586Z,96298.47
2023-03-19T13:13:35.731Z,96292.69
2023-03-19T13:16:03.204Z,96297.28
2023-03-19T13:18:32.298Z,96297.25
2023-03-19T13:21:06.316Z,96296.78
2023-03-19T13:23:33.295Z,96287.41
2023-03-19T13:26:01.478Z,96293.31
2023-03-19T13:28:28.162Z,96286.53
2023-03-19T13:30:56.028Z,96285.59
2023-03-19T13:33:23.304Z,96283.41
2023-03-19T13:35:50.000Z,96285.13
2023-03-19T13:38:16.753Z,96286.41
2023-03-19T13:40:46.189Z,96285.25
2023-03-19T13:43:28.145Z,96283.06
2023-03-19T13:45:55.674Z,96284.66
2023-03-19T13:48:24.784Z,96283.75
2023-03-19T13:50:52.444Z,96277.72
2023-03-19T13:53:26.186Z,96272.38
2023-03-19T13:55:56.340Z,96271.13
2023-03-19T13:58:30.532Z,96270.69
2023-03-19T14:00:57.773Z,96263.97
2023-03-19T14:03:24.659Z,96260.94
2023-03-19T14:05:52.095Z,96268.25
2023-03-19T14:08:19.666Z,96267.28
2023-03-19T14:10:53.749Z,96264.69
2023-03-19T14:13:21.493Z,96268.84
2023-03-19T14:15:55.703Z,96258.00
2023-03-19T14:18:23.059Z,96262.94
2023-03-19T14:20:51.943Z,96269.81
2023-03-19T14:23:25.112Z,96270.84
2023-03-19T14:26:03.030Z,96266.53
2023-03-19T14:28:29.683Z,96266.06
2023-03-19T14:30:56.870Z,96268.72
2023-03-19T14:33:25.222Z,96263.75
2023-03-19T14:35:59.634Z,96259.28
2023-03-19T14:38:26.184Z,96264.53
2023-03-19T14:40:53.169Z,96254.56
2023-03-19T14:43:30.978Z,96259.44
2023-03-19T14:46:05.176Z,96264.16
2023-03-19T14:48:32.192Z,96255.13
2023-03-19T14:50:59.715Z,96266.66
2023-03-19T14:53:26.751Z,96265.75
2023-03-19T14:55:53.627Z,96256.78
2023-03-19T14:58:20.139Z,96256.78
2023-03-19T15:00:58.296Z,96260.59
2023-03-19T15:03:32.455Z,96259.72
2023-03-19T15:06:01.127Z,96257.03
2023-03-19T15:08:28.605Z,96264.50
2023-03-19T15:10:56.012Z,96260.22
2023-03-19T15:13:23.323Z,96263.91
2023-03-19T15:15:50.215Z,96267.91
2023-03-19T15:18:18.603Z,96263.41
2023-03-19T15:20:45.729Z,96265.38
2023-03-19T15:23:25.725Z,96267.34
2023-03-19T15:25:53.421Z,96270.88
2023-03-19T15:28:22.298Z,96267.03
2023-03-19T15:30:58.527Z,96270.81
2023-03-19T15:33:39.895Z,96276.78
2023-03-19T15:36:09.367Z,96273.31
2023-03-19T15:38:43.685Z,96271.91
2023-03-19T15:41:11.083Z,96276.47
2023-03-19T15:43:39.090Z,96269.16
2023-03-19T15:46:06.399Z,96283.97
2023-03-19T15:48:33.097Z,96285.69
2023-03-19T15:51:00.510Z,96293.25
2023-03-19T15:53:28.864Z,96290.59
2023-03-19T15:56:02.819Z,96291.31
2023-03-19T15:58:29.350Z,96300.47
2023-03-19T16:00:56.541Z,96292.78
2023-03-19T16:03:30.811Z,96293.69
2023-03-19T16:05:58.104Z,96289.50
2023-03-19T16:08:25.768Z,96283.19
2023-03-19T16:10:58.738Z,96274.88
2023-03-19T16:13:26.186Z,96286.91
2023-03-19T16:15:52.761Z,96275.50
2023-03-19T16:18:28.743Z,96277.69
2023-03-19T16:20:55.814Z,96277.34
2023-03-19T16:23:25.314Z,96277.56
2023-03-19T16:25:52.772Z,96283.97
2023-03-19T16:28:19.433Z,96283.69
2023-03-19T16:30:47.576Z,96277.03
2023-03-19T16:33:14.537Z,96285.06
2023-03-19T16:35:41.466Z,96288.06
2023-03-19T16:38:08.444Z,96290.44
2023-03-19T16:40:35.147Z,96285.69
2023-03-19T16:43:02.126Z,96294.13
2023-03-19T16:45:36.283Z,96285.38
2023-03-19T16:48:03.797Z,96284.75
2023-03-19T16:50:30.964Z,96289.97
2023-03-19T16:53:05.058Z,96299.16
2023-03-19T16:55:31.938Z,96295.94
2023-03-19T16:57:58.778Z,96302.94
2023-03-19T17:00:25.749Z,96303.19
2023-03-19T17:02:53.062Z,96297.50
2023-03-19T17:05:22.397Z,96304.19
2023-03-19T17:07:49.216Z,96305.97
2023-03-19T17:10:19.847Z,96301.47
2023-03-19T17:12:48.879Z,96311.88
2023-03-19T17:15:17.047Z,96314.09
2023-03-19T17:17:44.637Z,96313.41
2023-03-19T17:20:23.027Z,96318.66
2023-03-19T17:22:50.772Z,96324.09
2023-03-19T17:25:17.710Z,96326.91
2023-03-19T17:27:45.539Z,96334.00
2023-03-19T17:30:15.461Z,96340.50
2023-03-19T17:32:42.196Z,96348.47
2023-03-19T17:35:11.093Z,96351.59
2023-03-19T17:37:38.675Z,96353.84
2023-03-19T17:40:05.590Z,96359.41
2023-03-19T17:42:41.660Z,96359.41
2023-03-19T17:45:10.000Z,96362.53
2023-03-19T17:47:36.895Z,96364.72
2023-03-19T17:50:04.262Z,96373.28
2023-03-19T17:52:32.448Z,96380.59
2023-03-19T17:55:00.048Z,96389.47
2023-03-19T17:57:29.321Z,96393.69
2023-03-19T17:59:58.469Z,96398.59
2023-03-19T18:02:25.413Z,96402.72
2023-03-19T18:04:54.289Z,96398.03
2023-03-19T18:07:22.228Z,96403.78
2023-03-19T18:09:56.498Z,96412.47
2023-03-19T18:12:23.458Z,96416.75
2023-03-19T18:14:50.582Z,96413.13
2023-03-19T18:17:20.042Z,96412.66
2023-03-19T18:19:47.970Z,96413.44
2023-03-19T18:22:17.083Z,96415.25
2023-03-19T18:24:51.731Z,96417.16
2023-03-19T18:27:19.658Z,96424.09
2023-03-19T18:29:47.173Z,96416.69
2023-03-19T18:32:14.994Z,96418.06
2023-03-19T18:34:41.938Z,96417.00
2023-03-19T18:37:09.941Z,96419.97
2023-03-19T18:39:37.588Z,96439.63
2023-03-19T18:42:04.352Z,96437.13
2023-03-19T18:44:31.026Z,96441.41
2023-03-19T18:46:57.698Z,96441.25
2023-03-19T18:49:28.596Z,96441.72
2023-03-19T18:52:04.812Z,96445.38
2023-03-19T18:54:32.336Z,96456.75
2023-03-19T18:56:58.921Z,96457.19
2023-03-19T18:59:27.317Z,96457.50
2023-03-19T19:01:54.221Z,96455.84
2023-03-19T19:04:20.957Z,96466.78
2023-03-19T19:06:48.436Z,96456.28
2023-03-19T19:09:14.971Z,96470.84
2023-03-19T19:11:42.238Z,96461.84
2023-03-19T19:14:08.857Z,96466.03
2023-03-19T19:16:38.967Z,96463.66
2023-03-19T19:19:05.881Z,96467.91
2023-03-19T19:21:33.469Z,96463.03
2023-03-19T19:24:00.414Z,96463.19
2023-03-19T19:26:34.758Z,96464.44
2023-03-19T19:29:01.696Z,96473.84
2023-03-19T19:31:30.609Z,96477.13
2023-03-19T19:33:59.559Z,96479.63
2023-03-19T19:36:26.931Z,96488.59
2023-03-19T19:38:53.880Z,96486.94
2023-03-19T19:41:21.014Z,96484.22
2023-03-19T19:43:51.147Z,96491.63
2023-03-19T19:59:01.135Z,96514.72
2023-03-19T20:01:28.728Z,96515.09
2023-03-19T20:03:56.088Z,96512.88
2023-03-19T20:09:40.891Z,96522.16
2023-03-19T21:01:20.116Z,96555.81
2023-03-19T21:03:46.741Z,96555.94
2023-03-19T21:06:13.295Z,96559.72
2023-03-19T23:51:35.293Z,96584.50
2023-03-19T23:54:02.011Z,96580.59
2023-03-19T23:56:31.494Z,96576.53
2023-03-19T23:59:01.899Z,96578.59
